createdAt,value
2023-04-14T00:02:51.761Z,5.33
2023-04-14T00:07:56.032Z,5.35
2023-04-14T00:13:00.211Z,5.28
2023-04-14T00:18:03.052Z,5.23
2023-04-14T00:23:07.255Z,5.16
2023-04-14T00:28:10.046Z,5.20
2023-04-14T00:33:13.204Z,5.04
2023-04-14T00:38:17.330Z,5.16
2023-04-14T00:43:20.315Z,4.95
2023-04-14T00:48:23.609Z,4.96
2023-04-14T00:53:28.350Z,4.85
2023-04-14T00:58:31.555Z,4.71
2023-04-14T01:03:34.548Z,4.70
2023-04-14T01:08:38.936Z,4.70
2023-04-14T01:13:46.822Z,4.76
2023-04-14T01:18:56.240Z,4.70
2023-04-14T01:24:34.662Z,4.59
2023-04-14T01:29:50.461Z,4.58
2023-04-14T01:34:56.835Z,4.69
2023-04-14T01:40:05.742Z,4.54
2023-04-14T01:45:12.194Z,4.34
2023-04-14T01:50:17.947Z,4.32
2023-04-14T01:55:21.964Z,4.13
2023-04-14T02:00:25.538Z,4.31
2023-04-14T02:05:30.670Z,4.11
2023-04-14T02:10:34.174Z,4.20
2023-04-14T02:15:40.877Z,4.04
2023-04-14T02:20:45.189Z,4.16
2023-04-14T02:25:52.681Z,4.04
2023-04-14T02:30:57.405Z,4.07
2023-04-14T02:36:03.513Z,3.86
2023-04-14T02:41:08.302Z,3.95
2023-04-14T02:46:13.200Z,3.92
2023-04-14T02:51:19.210Z,3.87
2023-04-14T02:56:23.015Z,3.82
2023-04-14T03:01:28.075Z,3.70
2023-04-14T03:06:33.178Z,3.58
2023-04-14T03:11:37.729Z,3.56
2023-04-14T03:16:41.268Z,3.44
2023-04-14T03:21:47.338Z,3.55
2023-04-14T03:26:50.618Z,3.51
2023-04-14T03:31:55.544Z,3.31
2023-04-14T03:37:00.709Z,3.42
2023-04-14T03:42:03.921Z,3.31
2023-04-14T03:47:08.194Z,3.35
2023-04-14T03:52:14.801Z,3.37
2023-04-14T03:57:18.987Z,3.20
2023-04-14T04:02:23.251Z,3.20
2023-04-14T04:07:28.492Z,3.23
2023-04-14T04:12:32.341Z,3.00
2023-04-14T04:17:38.756Z,3.09
2023-04-14T04:22:46.118Z,3.23
2023-04-14T04:27:49.978Z,3.04
2023-04-14T04:32:53.802Z,3.06
2023-04-14T04:38:00.857Z,2.93
2023-04-14T04:43:04.547Z,2.93
2023-04-14T04:48:08.302Z,2.93
2023-04-14T04:53:13.923Z,2.96
2023-04-14T04:58:17.529Z,2.95
2023-04-14T05:03:20.238Z,3.03
2023-04-14T05:08:24.423Z,3.11
2023-04-14T05:13:27.141Z,3.04
2023-04-14T05:18:29.857Z,3.19
2023-04-14T05:23:36.299Z,3.17
2023-04-14T05:28:39.387Z,3.37
2023-04-14T05:33:42.096Z,3.40
2023-04-14T05:38:46.479Z,3.63
2023-04-14T05:43:49.280Z,3.74
2023-04-14T05:48:52.350Z,3.88
2023-04-14T05:53:56.388Z,4.11
2023-04-14T05:58:59.083Z,4.24
2023-04-14T06:04:03.689Z,4.42
2023-04-14T06:09:08.148Z,4.43
2023-04-14T06:14:10.885Z,4.62
2023-04-14T06:19:13.649Z,4.68
2023-04-14T06:24:17.751Z,4.96
2023-04-14T06:29:20.499Z,5.23
2023-04-14T06:34:23.215Z,6.72
2023-04-14T06:39:27.360Z,6.94
2023-04-14T06:44:30.034Z,7.47
2023-04-14T06:49:32.786Z,6.84
2023-04-14T06:54:36.848Z,8.11
2023-04-14T06:59:39.595Z,7.46
2023-04-14T07:04:42.334Z,6.81
2023-04-14T07:09:46.534Z,6.85
2023-04-14T07:14:52.374Z,6.85
2023-04-14T07:19:55.216Z,7.02
2023-04-14T07:24:59.298Z,7.17
2023-04-14T07:30:02.073Z,7.28
2023-04-14T07:35:05.770Z,7.56
2023-04-14T07:40:11.137Z,7.65
2023-04-14T07:45:13.857Z,7.87
2023-04-14T07:50:19.599Z,7.82
2023-04-14T07:55:25.405Z,8.17
2023-04-14T08:00:28.665Z,8.15
2023-04-14T08:05:31.681Z,8.48
2023-04-14T08:10:36.319Z,8.61
2023-04-14T08:15:39.043Z,8.81
2023-04-14T08:20:42.005Z,8.84
2023-04-14T08:25:46.154Z,9.18
2023-04-14T08:30:49.350Z,9.06
2023-04-14T08:35:58.042Z,9.25
2023-04-14T08:41:05.756Z,9.35
2023-04-14T08:46:10.572Z,9.66
2023-04-14T08:51:15.738Z,9.95
2023-04-14T08:56:19.996Z,9.98
2023-04-14T09:01:22.918Z,10.16
2023-04-14T09:06:27.958Z,10.22
2023-04-14T09:11:32.355Z,10.50
2023-04-14T09:16:35.411Z,10.44
2023-04-14T09:21:53.798Z,10.57
2023-04-14T09:26:58.642Z,10.82
2023-04-14T09:32:01.522Z,11.00
2023-04-14T09:37:05.617Z,11.17
2023-04-14T09:42:09.713Z,11.35
2023-04-14T09:47:16.219Z,11.44
2023-04-14T09:52:19.028Z,11.54
2023-04-14T09:57:27.308Z,11.58
2023-04-14T10:02:30.773Z,11.57
2023-04-14T10:07:34.423Z,12.15
2023-04-14T10:12:38.534Z,12.47
2023-04-14T10:17:42.325Z,12.51
2023-04-14T10:22:45.075Z,12.50
2023-04-14T10:27:49.917Z,12.63
2023-04-14T10:32:53.407Z,12.76
2023-04-14T10:37:56.249Z,13.14
2023-04-14T10:43:00.419Z,13.20
2023-04-14T10:48:03.949Z,13.38
2023-04-14T10:53:09.271Z,13.40
2023-04-14T10:58:20.063Z,13.63
2023-04-14T11:03:23.108Z,13.49
2023-04-14T11:08:27.376Z,13.84
2023-04-14T11:13:32.410Z,14.24
2023-04-14T11:18:38.607Z,13.93
2023-04-14T11:23:42.400Z,14.50
2023-04-14T11:28:46.963Z,14.65
2023-04-14T11:33:49.869Z,14.51
2023-04-14T11:38:52.629Z,14.64
2023-04-14T11:43:56.862Z,15.10
2023-04-14T11:48:59.920Z,15.01
2023-04-14T11:54:03.386Z,14.22
2023-04-14T11:59:07.651Z,15.09
2023-04-14T12:04:10.609Z,15.22
2023-04-14T12:09:13.457Z,15.56
2023-04-14T12:14:18.638Z,14.79
2023-04-14T12:19:22.129Z,15.54
2023-04-14T12:24:24.921Z,15.89
2023-04-14T12:29:29.093Z,15.73
2023-04-14T12:34:32.574Z,15.94
2023-04-14T12:39:50.546Z,16.02
2023-04-14T12:44:58.873Z,15.87
2023-04-14T12:50:03.091Z,16.28
2023-04-14T12:55:07.027Z,14.74
2023-04-14T13:00:12.505Z,16.23
2023-04-14T13:05:15.643Z,15.38
2023-04-14T13:10:18.536Z,16.11
2023-04-14T13:16:10.864Z,16.74
2023-04-14T13:20:45.542Z,16.40
2023-04-14T13:25:48.669Z,15.63
2023-04-14T13:30:54.624Z,14.55
2023-04-14T13:35:57.439Z,15.22
2023-04-14T13:41:00.291Z,16.09
2023-04-14T13:46:04.507Z,15.68
2023-04-14T13:51:07.207Z,15.37
2023-04-14T13:56:10.020Z,14.69
2023-04-14T14:01:14.073Z,14.41
2023-04-14T14:06:16.863Z,16.22
2023-04-14T14:11:19.571Z,16.36
2023-04-14T14:16:36.215Z,15.52
2023-04-14T14:21:40.274Z,15.49
2023-04-14T14:26:42.977Z,15.76
2023-04-14T14:31:47.193Z,16.23
2023-04-14T14:36:50.070Z,16.39
2023-04-14T14:41:52.983Z,16.21
2023-04-14T14:46:57.211Z,15.73
2023-04-14T14:52:01.781Z,15.71
2023-04-14T14:57:04.598Z,16.09
2023-04-14T15:02:08.713Z,15.81
2023-04-14T15:07:11.508Z,15.20
2023-04-14T15:12:14.531Z,15.59
2023-04-14T15:17:18.708Z,15.79
2023-04-14T15:22:21.618Z,16.40
2023-04-14T15:27:24.358Z,16.68
2023-04-14T15:32:28.589Z,16.42
2023-04-14T15:37:31.337Z,16.33
2023-04-14T15:42:34.093Z,16.32
2023-04-14T15:47:38.223Z,15.96
2023-04-14T15:52:41.173Z,15.93
2023-04-14T15:57:43.908Z,15.80
2023-04-14T16:02:48.342Z,15.54
2023-04-14T16:07:52.105Z,15.48
2023-04-14T16:12:54.828Z,15.11
2023-04-14T16:17:58.967Z,15.06
2023-04-14T16:23:01.701Z,15.01
2023-04-14T16:28:04.473Z,14.69
2023-04-14T16:33:08.646Z,14.59
2023-04-14T16:38:11.346Z,14.76
2023-04-14T16:43:14.048Z,14.62
2023-04-14T16:48:18.764Z,14.66
2023-04-14T16:53:21.699Z,14.56
2023-04-14T16:58:24.507Z,14.46
2023-04-14T17:03:28.783Z,14.36
2023-04-14T17:08:31.754Z,14.20
2023-04-14T17:13:34.553Z,14.20
2023-04-14T17:18:38.972Z,14.07
2023-04-14T17:23:42.225Z,14.02
2023-04-14T17:28:45.597Z,13.97
2023-04-14T17:33:50.011Z,13.78
2023-04-14T17:38:52.890Z,13.80
2023-04-14T17:43:55.598Z,13.62
2023-04-14T17:48:59.893Z,13.60
2023-04-14T17:54:02.840Z,13.49
2023-04-14T17:59:05.948Z,13.30
2023-04-14T18:04:10.155Z,13.19
2023-04-14T18:09:13.007Z,13.12
2023-04-14T18:14:15.978Z,13.12
2023-04-14T18:19:20.138Z,12.96
2023-04-14T18:29:29.773Z,12.72
2023-04-14T18:34:34.757Z,12.62
2023-04-14T18:39:37.730Z,12.49
2023-04-14T18:44:40.458Z,12.43
2023-04-14T18:49:44.794Z,12.29
2023-04-14T18:54:47.512Z,12.08
2023-04-14T18:59:50.258Z,11.88
2023-04-14T19:04:54.992Z,11.71
2023-04-14T19:09:57.963Z,11.61
2023-04-14T19:15:02.538Z,11.64
2023-04-14T19:20:08.186Z,11.46
2023-04-14T19:25:11.694Z,11.31
2023-04-14T19:30:14.736Z,11.08
2023-04-14T19:35:18.977Z,11.19
2023-04-14T19:40:21.807Z,11.16
2023-04-14T19:45:24.503Z,10.86
2023-04-14T19:50:28.552Z,10.94
2023-04-14T19:55:31.266Z,10.76
2023-04-14T20:00:40.817Z,10.75
2023-04-14T20:05:45.026Z,10.78
2023-04-14T20:10:50.896Z,10.75
2023-04-14T20:15:54.898Z,10.72
2023-04-14T20:20:59.556Z,10.41
2023-04-14T20:26:03.297Z,10.42
2023-04-14T20:31:06.581Z,10.32
2023-04-14T20:36:11.282Z,10.28
2023-04-14T20:41:13.977Z,10.03
2023-04-14T20:46:16.759Z,10.07
2023-04-14T20:51:20.827Z,9.96
2023-04-14T20:56:24.679Z,9.91
2023-04-14T21:01:27.915Z,9.72
2023-04-14T21:06:33.127Z,9.79
2023-04-14T21:11:35.951Z,9.79
2023-04-14T21:16:38.929Z,9.55
2023-04-14T21:21:43.077Z,9.77
2023-04-14T21:26:45.972Z,9.44
2023-04-14T21:31:48.724Z,9.48
2023-04-14T21:36:53.090Z,9.33
2023-04-14T21:41:56.444Z,9.28
2023-04-14T21:46:59.176Z,9.33
2023-04-14T21:52:03.289Z,9.09
2023-04-14T21:57:06.086Z,9.25
2023-04-14T22:02:09.282Z,9.23
2023-04-14T22:07:13.430Z,8.96
2023-04-14T22:12:16.468Z,9.01
2023-04-14T22:17:19.268Z,9.00
2023-04-14T22:22:23.676Z,8.95
2023-04-14T22:27:26.565Z,8.84
2023-04-14T22:32:29.338Z,8.83
2023-04-14T22:37:33.706Z,8.75
2023-04-14T22:42:36.640Z,8.61
2023-04-14T22:47:39.485Z,8.58
2023-04-14T22:52:43.665Z,8.51
2023-04-14T22:57:46.408Z,8.43
2023-04-14T23:02:50.726Z,8.40
2023-04-14T23:07:55.066Z,8.32
2023-04-14T23:12:58.010Z,8.38
2023-04-14T23:18:01.561Z,8.38
2023-04-14T23:23:05.796Z,8.40
2023-04-14T23:28:09.911Z,8.20
2023-04-14T23:33:12.647Z,8.18
2023-04-14T23:38:18.350Z,8.16
2023-04-14T23:43:22.124Z,8.11
2023-04-14T23:48:25.665Z,8.06
2023-04-14T23:53:29.812Z,8.14
2023-04-14T23:58:33.668Z,7.91
